Overview Statistics Trail Chart Weather Telemetry Raw packets
 

This is the latest recevied weather packets stored in our database for station/object HB9GPU-10. If no packets are shown the sender has not sent any weather packets the latest 10 day(s).

<< 15 16 17 18 19 20 21 >>
Time Temp. Humidity Pressure Rain* Wind** Luminosity Snow
1788293910 23.89° C 35% 1026.3 hPa - - - -
1788293009 23.33° C 36% 1026.2 hPa - - - -
1788292109 22.78° C 37% 1026.2 hPa - - - -
1788291209 22.78° C 38% 1026.2 hPa - - - -
1788290309 23.33° C 36% 1026.2 hPa - - - -
1788289409 23.33° C 37% 1026.1 hPa - - - -
1788288509 23.89° C 35% 1026 hPa - - - -
1788287608 23.33° C 37% 1025.9 hPa - - - -
1788286708 23.89° C 36% 1025.8 hPa - - - -
1788285808 23.89° C 36% 1025.7 hPa - - - -
1788284908 24.44° C 36% 1025.4 hPa - - - -
1788284008 23.89° C 36% 1025.5 hPa - - - -
1788283107 25° C 32% 1025.5 hPa - - - -
1788282207 25.56° C 32% 1025.4 hPa - - - -
1788281307 25° C 32% 1025.5 hPa - - - -
1788280406 26.11° C 31% 1025.4 hPa - - - -
1788279506 26.11° C 31% 1025.3 hPa - - - -
1788278606 26.11° C 31% 1025.2 hPa - - - -
1788277705 26.11° C 31% 1025.3 hPa - - - -
1788276805 26.11° C 32% 1025.5 hPa - - - -
1788275905 26.11° C 32% 1025.4 hPa - - - -
1788275005 26.67° C 31% 1025.2 hPa - - - -
1788274105 26.11° C 31% 1025.3 hPa - - - -
1788273204 26.11° C 31% 1025.2 hPa - - - -
1788272304 26.11° C 31% 1025.2 hPa - - - -

* Rain since midnight (hover to see other rain measurements)
** Current wind speed in m/s (hover to see current wind gust speed)